Time;durP1;ratioP1;P1;durP2;ratioP2;P2;SDS_P1;SDS_P2;PMS_P1;PMS_P2;Temp;Humidity;BMP_temperature;BMP_pressure;BME280_temperature;BME280_humidity;BME280_pressure;Samples;Min_cycle;Max_cycle;Signal;HPM_P1;HPM_P2
2021/09/21 00:01:09;;;;;;;4.65;3.65;;;16.60;51.70;;;;;;5086915;28;20362;-65
2021/09/21 00:03:35;;;;;;;3.97;3.05;;;16.60;51.90;;;;;;5075761;28;20024;-64
2021/09/21 00:06:03;;;;;;;5.63;3.20;;;16.60;52.10;;;;;;5087438;28;20510;-65
2021/09/21 00:08:29;;;;;;;8.73;3.97;;;16.70;52.40;;;;;;5073125;28;20016;-65
2021/09/21 00:10:56;;;;;;;20.30;3.95;;;16.70;52.50;;;;;;5079768;28;20031;-65
2021/09/21 00:13:22;;;;;;;7.35;3.55;;;16.60;52.70;;;;;;5080725;28;20142;-65
2021/09/21 00:15:47;;;;;;;4.75;3.10;;;16.60;52.60;;;;;;5088911;28;20020;-65
2021/09/21 00:18:13;;;;;;;7.05;3.42;;;16.70;52.80;;;;;;5073155;28;20032;-65
2021/09/21 00:20:39;;;;;;;5.60;3.53;;;16.70;52.90;;;;;;5072884;28;20034;-65
2021/09/21 00:23:05;;;;;;;4.15;2.97;;;16.70;52.90;;;;;;5078159;28;20497;-67
2021/09/21 00:25:31;;;;;;;4.00;3.17;;;16.70;52.90;;;;;;5088701;28;20024;-65
2021/09/21 00:27:57;;;;;;;4.70;3.45;;;16.60;52.80;;;;;;5076579;28;20111;-64
2021/09/21 00:30:23;;;;;;;3.95;3.22;;;16.60;52.70;;;;;;5084014;28;20024;-64
2021/09/21 00:33:00;;;;;;;5.25;3.20;;;16.60;52.70;;;;;;5083598;28;20029;-65
2021/09/21 00:35:26;;;;;;;3.65;2.60;;;16.60;52.50;;;;;;5075398;28;20052;-65
2021/09/21 00:37:52;;;;;;;5.53;3.00;;;16.60;52.50;;;;;;5088012;28;20059;-65
2021/09/21 00:40:17;;;;;;;6.85;3.45;;;16.60;52.40;;;;;;5079341;28;20024;-65
2021/09/21 00:42:45;;;;;;;5.00;2.85;;;16.60;52.30;;;;;;5080817;28;20039;-65
2021/09/21 00:45:24;;;;;;;3.85;3.13;;;16.60;52.10;;;;;;5086623;28;20024;-65
2021/09/21 00:47:54;;;;;;;4.88;2.92;;;16.60;52.00;;;;;;5058926;28;20024;-65
2021/09/21 00:50:22;;;;;;;4.03;2.88;;;16.60;51.90;;;;;;5084449;28;20044;-65
2021/09/21 00:52:51;;;;;;;3.90;3.13;;;16.60;51.90;;;;;;5083231;28;20016;-65
2021/09/21 00:55:17;;;;;;;4.25;3.05;;;16.60;51.90;;;;;;5076202;28;20028;-66
2021/09/21 00:57:44;;;;;;;3.75;3.03;;;16.60;51.90;;;;;;5088235;28;20032;-65
2021/09/21 01:00:12;;;;;;;6.90;3.75;;;16.60;51.70;;;;;;5077826;28;20020;-66
2021/09/21 01:02:38;;;;;;;4.97;3.22;;;16.50;51.30;;;;;;5079596;28;20452;-66
2021/09/21 01:05:05;;;;;;;4.30;2.88;;;16.50;51.20;;;;;;5085240;28;20032;-65
2021/09/21 01:07:31;;;;;;;5.72;2.97;;;16.50;51.50;;;;;;5066402;28;20098;-66
2021/09/21 01:10:06;;;;;;;3.92;2.80;;;16.50;51.70;;;;;;5092451;28;20024;-65
2021/09/21 01:12:32;;;;;;;4.13;2.88;;;16.50;51.70;;;;;;5086586;28;20024;-66
2021/09/21 01:14:58;;;;;;;5.65;2.83;;;16.50;51.80;;;;;;5090930;28;20099;-66
2021/09/21 01:17:24;;;;;;;3.33;2.97;;;16.50;51.70;;;;;;5073715;28;20028;-65
2021/09/21 01:19:50;;;;;;;6.63;3.20;;;16.50;51.70;;;;;;5057932;28;20033;-65
2021/09/21 01:22:16;;;;;;;4.75;3.28;;;16.50;51.80;;;;;;5072445;28;20016;-66
2021/09/21 01:24:42;;;;;;;4.50;3.63;;;16.50;51.80;;;;;;5087177;28;20020;-65
2021/09/21 01:27:07;;;;;;;7.00;3.83;;;16.50;51.80;;;;;;5092161;28;20024;-66
2021/09/21 01:29:34;;;;;;;4.22;3.25;;;16.50;51.80;;;;;;5081220;28;20087;-65
2021/09/21 01:32:00;;;;;;;3.63;2.88;;;16.40;51.80;;;;;;5093073;28;20012;-65
2021/09/21 01:34:26;;;;;;;4.93;3.33;;;16.50;52.00;;;;;;5086587;28;20020;-66
2021/09/21 01:36:52;;;;;;;5.28;3.50;;;16.40;51.80;;;;;;5085582;28;20036;-65
2021/09/21 01:39:18;;;;;;;4.13;3.30;;;16.40;51.70;;;;;;5093809;28;20028;-65
2021/09/21 01:41:45;;;;;;;5.18;3.10;;;16.40;51.70;;;;;;5081262;28;20089;-65
2021/09/21 01:44:11;;;;;;;4.75;3.53;;;16.40;51.40;;;;;;5091460;28;20033;-65
2021/09/21 01:46:37;;;;;;;4.65;3.38;;;16.40;51.60;;;;;;5087812;28;20428;-66
2021/09/21 01:49:03;;;;;;;4.35;3.33;;;16.30;51.60;;;;;;5084270;28;20020;-65
2021/09/21 01:51:35;;;;;;;4.32;2.85;;;16.30;51.50;;;;;;5094574;28;20408;-65
2021/09/21 01:59:11;;;;;;;6.63;3.53;;;16.30;51.90;;;;;;5092702;28;20057;-65
2021/09/21 02:01:37;;;;;;;5.28;3.60;;;16.30;51.90;;;;;;5080878;28;20048;-65
2021/09/21 02:04:07;;;;;;;4.93;3.40;;;16.30;52.00;;;;;;5092371;28;20024;-65
2021/09/21 02:06:36;;;;;;;6.40;3.33;;;16.30;52.20;;;;;;5084853;28;20032;-65
2021/09/21 02:09:03;;;;;;;6.70;3.55;;;16.30;51.90;;;;;;5084550;28;20020;-66
2021/09/21 02:11:29;;;;;;;4.60;3.70;;;16.20;51.90;;;;;;5081001;28;20037;-65
2021/09/21 02:13:58;;;;;;;4.35;3.17;;;16.20;52.00;;;;;;5074539;28;20017;-65
2021/09/21 02:16:30;;;;;;;4.85;3.33;;;16.20;52.00;;;;;;5082958;28;20548;-66
2021/09/21 02:18:56;;;;;;;3.55;2.92;;;16.20;52.10;;;;;;5083538;28;20029;-66
2021/09/21 02:21:22;;;;;;;4.43;3.10;;;16.30;52.10;;;;;;5090639;28;20062;-65
2021/09/21 02:23:51;;;;;;;5.50;2.97;;;16.20;52.20;;;;;;5077555;28;20444;-65
2021/09/21 02:26:17;;;;;;;5.07;3.42;;;16.20;52.30;;;;;;5086915;28;20054;-65
2021/09/21 02:28:42;;;;;;;4.50;3.50;;;16.20;52.10;;;;;;5085015;28;20016;-66
2021/09/21 02:31:08;;;;;;;5.65;3.22;;;16.20;52.10;;;;;;5079692;28;20107;-66
2021/09/21 02:33:35;;;;;;;4.30;3.30;;;16.20;52.00;;;;;;5089294;28;20465;-65
2021/09/21 02:36:01;;;;;;;4.35;2.63;;;16.20;52.00;;;;;;5079280;28;20098;-65
2021/09/21 02:38:27;;;;;;;3.90;2.97;;;16.20;51.90;;;;;;5084074;28;20115;-66
2021/09/21 02:40:53;;;;;;;5.30;3.42;;;16.20;51.90;;;;;;5086302;28;20531;-65
2021/09/21 02:43:18;;;;;;;4.43;2.95;;;16.20;51.90;;;;;;5078011;28;20025;-65
2021/09/21 02:45:44;;;;;;;4.40;3.10;;;16.20;51.70;;;;;;5090531;28;20119;-65
2021/09/21 02:48:10;;;;;;;5.53;3.33;;;16.20;51.70;;;;;;5080075;28;20445;-65
2021/09/21 02:50:36;;;;;;;5.45;3.28;;;16.20;51.60;;;;;;5083913;28;20020;-66
2021/09/21 02:53:04;;;;;;;4.03;3.38;;;16.20;52.00;;;;;;5087434;28;20024;-65
2021/09/21 02:55:29;;;;;;;3.25;2.58;;;16.20;51.50;;;;;;5075710;28;20330;-64
2021/09/21 02:57:55;;;;;;;7.40;3.35;;;16.20;51.60;;;;;;5089492;28;20025;-65
2021/09/21 03:00:26;;;;;;;4.63;3.40;;;16.20;51.50;;;;;;5081467;28;20020;-65
2021/09/21 03:02:53;;;;;;;3.55;2.60;;;16.20;51.50;;;;;;5081141;28;20052;-65
2021/09/21 03:05:23;;;;;;;5.65;3.35;;;16.20;51.40;;;;;;5089391;28;20024;-64
2021/09/21 03:07:59;;;;;;;3.58;2.75;;;16.20;51.40;;;;;;5060183;28;20035;-66
2021/09/21 03:10:39;;;;;;;4.75;3.00;;;16.20;51.40;;;;;;5085048;28;20016;-65
2021/09/21 03:18:26;;;;;;;4.40;2.95;;;16.20;51.50;;;;;;5085229;28;20112;-65
2021/09/21 03:20:52;;;;;;;7.88;4.10;;;16.20;51.50;;;;;;5084079;28;20043;-65
2021/09/21 03:23:19;;;;;;;5.32;3.15;;;16.20;51.50;;;;;;5077215;28;20033;-66
2021/09/21 03:25:45;;;;;;;3.65;3.10;;;16.20;51.40;;;;;;5089694;28;20049;-66
2021/09/21 03:28:10;;;;;;;4.45;3.65;;;16.10;51.30;;;;;;5079484;28;20056;-66
2021/09/21 03:30:37;;;;;;;4.07;3.13;;;16.20;51.20;;;;;;5083040;28;20523;-66
2021/09/21 03:33:03;;;;;;;4.07;3.08;;;16.10;51.30;;;;;;5085578;28;20111;-65
2021/09/21 03:35:30;;;;;;;4.55;3.50;;;16.10;51.40;;;;;;5076087;28;20024;-66
2021/09/21 03:37:56;;;;;;;3.63;3.10;;;16.20;51.40;;;;;;5088634;28;20020;-65
2021/09/21 03:40:22;;;;;;;5.18;3.58;;;16.10;51.40;;;;;;5080666;28;20028;-66
2021/09/21 03:42:48;;;;;;;4.03;3.40;;;16.10;51.30;;;;;;5081166;28;20066;-65
2021/09/21 03:45:14;;;;;;;4.35;3.20;;;16.10;51.40;;;;;;5087908;28;20020;-66
2021/09/21 03:47:40;;;;;;;9.13;3.58;;;16.10;51.30;;;;;;5075856;28;20028;-66
2021/09/21 03:50:06;;;;;;;5.22;3.20;;;16.10;51.30;;;;;;5086938;28;20052;-66
2021/09/21 03:52:32;;;;;;;5.43;3.38;;;16.10;51.20;;;;;;5081944;28;20028;-65
2021/09/21 03:54:58;;;;;;;4.53;3.08;;;16.10;51.20;;;;;;5079723;28;20095;-65
2021/09/21 03:57:24;;;;;;;4.85;3.50;;;16.10;51.10;;;;;;5089364;28;20505;-66
2021/09/21 03:59:49;;;;;;;3.72;3.20;;;16.10;51.30;;;;;;5076176;28;20020;-66
2021/09/21 04:02:15;;;;;;;5.55;3.50;;;16.10;51.50;;;;;;5085410;28;20453;-66
2021/09/21 04:04:41;;;;;;;6.82;3.92;;;16.10;51.50;;;;;;5083919;28;20027;-66
2021/09/21 04:07:07;;;;;;;7.18;3.15;;;16.10;51.60;;;;;;5072144;28;20064;-66
2021/09/21 04:09:33;;;;;;;8.32;4.05;;;16.10;51.70;;;;;;5086625;28;20110;-65
2021/09/21 04:11:59;;;;;;;6.97;3.78;;;16.10;51.90;;;;;;5075364;28;20055;-66
2021/09/21 04:14:24;;;;;;;4.85;3.28;;;16.10;52.00;;;;;;5070740;28;20024;-66
2021/09/21 04:16:50;;;;;;;4.90;3.10;;;16.10;51.90;;;;;;5080039;28;20028;-66
2021/09/21 04:19:16;;;;;;;5.60;2.83;;;16.10;51.80;;;;;;5087712;28;20111;-65
2021/09/21 04:21:42;;;;;;;5.45;2.85;;;16.10;51.80;;;;;;5075375;28;20033;-66
2021/09/21 04:24:08;;;;;;;4.70;3.30;;;16.10;51.60;;;;;;5085896;28;20024;-66
2021/09/21 04:26:33;;;;;;;4.90;3.75;;;16.10;51.70;;;;;;5081397;28;20036;-65
2021/09/21 04:28:59;;;;;;;7.15;3.75;;;16.10;52.00;;;;;;5078577;28;20020;-65
2021/09/21 04:31:27;;;;;;;4.85;3.58;;;16.10;52.00;;;;;;5088270;28;20101;-65
2021/09/21 04:33:54;;;;;;;5.80;3.33;;;16.10;52.20;;;;;;5076066;28;20019;-64
2021/09/21 04:36:21;;;;;;;5.88;4.13;;;16.10;52.30;;;;;;5083798;28;20553;-66
2021/09/21 04:38:47;;;;;;;5.90;3.90;;;16.10;52.30;;;;;;5083180;28;20020;-66
2021/09/21 04:41:14;;;;;;;8.65;4.20;;;16.10;52.40;;;;;;5076711;28;20102;-65
2021/09/21 04:43:40;;;;;;;6.43;4.60;;;16.10;52.60;;;;;;5087792;28;20473;-65
2021/09/21 04:46:08;;;;;;;8.43;4.50;;;16.10;52.60;;;;;;5077403;28;20024;-64
2021/09/21 04:48:35;;;;;;;7.93;3.92;;;16.10;52.30;;;;;;5081961;28;20031;-66
2021/09/21 04:51:02;;;;;;;6.18;3.70;;;16.10;52.20;;;;;;5085167;28;20020;-65
2021/09/21 04:53:28;;;;;;;5.93;4.05;;;16.10;52.20;;;;;;5074927;28;20021;-65
2021/09/21 04:55:55;;;;;;;6.13;4.38;;;16.10;52.50;;;;;;5087346;28;20382;-65
2021/09/21 04:58:20;;;;;;;8.15;4.57;;;16.10;52.60;;;;;;5079339;28;20418;-66
2021/09/21 05:00:47;;;;;;;6.93;4.47;;;16.10;52.80;;;;;;5079984;28;20033;-66
2021/09/21 05:03:12;;;;;;;6.30;4.22;;;16.10;52.90;;;;;;5086486;28;20070;-66
2021/09/21 05:05:38;;;;;;;7.32;4.32;;;16.10;52.90;;;;;;5074589;28;20028;-66
2021/09/21 05:08:04;;;;;;;6.45;4.47;;;16.10;52.70;;;;;;5075248;28;20062;-66
2021/09/21 05:10:31;;;;;;;6.70;3.70;;;16.10;52.60;;;;;;5082437;28;20025;-66
2021/09/21 05:12:58;;;;;;;4.65;3.63;;;16.10;52.60;;;;;;5070228;28;20472;-65
2021/09/21 05:15:24;;;;;;;4.93;3.30;;;16.10;52.50;;;;;;5087940;28;20031;-66
2021/09/21 05:17:50;;;;;;;4.82;3.88;;;16.10;52.30;;;;;;5074891;28;20545;-65
2021/09/21 05:20:16;;;;;;;4.28;3.38;;;16.10;52.60;;;;;;5083903;28;20032;-66
2021/09/21 05:22:42;;;;;;;4.47;3.40;;;16.10;52.50;;;;;;5082189;28;20028;-66
2021/09/21 05:25:09;;;;;;;4.40;3.10;;;16.10;52.30;;;;;;5076781;28;20159;-66
2021/09/21 05:27:35;;;;;;;4.80;3.95;;;16.10;52.30;;;;;;5087796;28;20633;-66
2021/09/21 05:30:00;;;;;;;6.28;3.55;;;16.10;52.20;;;;;;5076188;28;20048;-66
2021/09/21 05:32:26;;;;;;;6.28;3.92;;;16.20;52.30;;;;;;5070166;28;20056;-64
2021/09/21 05:34:52;;;;;;;6.90;4.07;;;16.20;52.10;;;;;;5077648;28;20024;-64
2021/09/21 05:37:17;;;;;;;4.68;3.30;;;16.20;51.90;;;;;;5085536;28;20028;-67
2021/09/21 05:39:43;;;;;;;4.32;3.08;;;16.20;52.00;;;;;;5072370;28;20401;-65
2021/09/21 05:42:09;;;;;;;6.07;3.97;;;16.20;51.90;;;;;;5075019;28;20473;-65
2021/09/21 05:44:35;;;;;;;7.95;4.30;;;16.20;52.00;;;;;;5081143;28;20035;-66
2021/09/21 05:47:01;;;;;;;4.60;3.75;;;16.30;51.70;;;;;;5083728;28;20032;-66
2021/09/21 05:49:26;;;;;;;4.80;3.92;;;16.30;51.50;;;;;;5074092;28;20021;-65
2021/09/21 05:51:52;;;;;;;4.57;3.38;;;16.30;51.50;;;;;;5086773;28;20016;-65
2021/09/21 05:54:18;;;;;;;5.72;3.85;;;16.30;51.30;;;;;;5078405;28;20095;-65
2021/09/21 05:56:44;;;;;;;8.30;3.65;;;16.40;51.40;;;;;;5062039;28;20052;-65
2021/09/21 05:59:09;;;;;;;5.78;3.30;;;16.40;51.60;;;;;;5086213;28;20120;-66
2021/09/21 06:01:35;;;;;;;4.82;3.45;;;16.40;51.90;;;;;;5074908;28;20048;-65
2021/09/21 06:04:03;;;;;;;9.00;3.53;;;16.50;52.10;;;;;;5080086;28;20473;-64
2021/09/21 06:06:29;;;;;;;7.50;4.10;;;16.50;52.40;;;;;;5085051;28;20435;-66
2021/09/21 06:08:55;;;;;;;6.13;4.00;;;16.60;52.50;;;;;;5079902;28;20020;-65
2021/09/21 06:11:23;;;;;;;16.80;5.93;;;16.60;52.50;;;;;;5062890;28;20395;-66
2021/09/21 06:13:50;;;;;;;7.50;4.60;;;16.60;52.30;;;;;;5074393;28;20043;-65
2021/09/21 06:16:18;;;;;;;8.55;4.43;;;16.60;52.40;;;;;;5087565;28;20043;-66
2021/09/21 06:18:45;;;;;;;11.07;4.63;;;16.70;52.30;;;;;;5080526;28;20020;-65
2021/09/21 06:21:10;;;;;;;11.07;4.97;;;16.70;52.60;;;;;;5082537;28;20024;-65
2021/09/21 06:23:36;;;;;;;6.65;4.45;;;16.70;52.40;;;;;;5077714;28;20031;-65
2021/09/21 06:26:02;;;;;;;8.55;3.90;;;16.70;52.40;;;;;;5089186;28;20025;-65
2021/09/21 06:28:28;;;;;;;6.18;3.53;;;16.80;52.60;;;;;;5074409;28;20031;-65
2021/09/21 06:30:53;;;;;;;6.65;3.55;;;16.80;52.30;;;;;;5081912;28;20422;-66
2021/09/21 06:33:19;;;;;;;6.97;3.90;;;16.80;52.30;;;;;;5088865;28;20028;-66
2021/09/21 06:35:45;;;;;;;5.43;3.40;;;16.90;52.30;;;;;;5077449;28;20022;-65
2021/09/21 06:38:11;;;;;;;5.35;3.40;;;16.90;51.70;;;;;;5087484;28;20509;-66
2021/09/21 06:40:37;;;;;;;6.82;3.55;;;17.00;52.10;;;;;;5083697;28;20028;-67
2021/09/21 06:43:02;;;;;;;4.80;3.50;;;17.00;52.00;;;;;;5079985;28;20044;-65
2021/09/21 06:45:28;;;;;;;7.13;4.30;;;17.10;51.80;;;;;;5090547;28;20053;-66
2021/09/21 06:47:54;;;;;;;4.72;3.50;;;17.20;51.50;;;;;;5070404;28;20058;-65
2021/09/21 06:50:20;;;;;;;5.20;3.75;;;17.20;51.50;;;;;;5086163;28;20043;-65
2021/09/21 06:52:46;;;;;;;4.68;3.42;;;17.30;51.50;;;;;;5085111;28;20470;-65
2021/09/21 06:55:12;;;;;;;4.88;3.58;;;17.40;51.00;;;;;;5064598;28;20025;-64
2021/09/21 06:57:38;;;;;;;15.30;4.63;;;17.50;50.80;;;;;;5088270;28;20032;-65
2021/09/21 07:00:08;;;;;;;12.20;4.35;;;17.60;50.60;;;;;;5070175;28;20449;-65
2021/09/21 07:02:34;;;;;;;6.40;3.78;;;17.70;50.10;;;;;;5083277;28;20177;-66
2021/09/21 07:05:00;;;;;;;7.00;3.90;;;17.70;49.80;;;;;;5080219;28;20099;-66
2021/09/21 07:07:26;;;;;;;7.82;4.00;;;17.80;49.60;;;;;;5064974;28;20376;-66
2021/09/21 07:09:51;;;;;;;5.80;4.05;;;17.90;49.60;;;;;;5071160;28;20158;-67
2021/09/21 07:12:17;;;;;;;5.47;4.00;;;18.00;49.20;;;;;;5086027;28;20031;-66
2021/09/21 07:14:43;;;;;;;5.30;3.58;;;18.00;48.40;;;;;;5084142;28;20054;-67
2021/09/21 07:17:08;;;;;;;5.95;4.60;;;18.10;47.90;;;;;;5071506;28;20028;-66
2021/09/21 07:19:34;;;;;;;5.20;3.90;;;18.10;46.80;;;;;;5062012;28;20040;-67
2021/09/21 07:22:00;;;;;;;7.82;3.75;;;18.20;46.80;;;;;;5051266;28;20032;-66
2021/09/21 07:24:26;;;;;;;6.60;4.35;;;18.20;47.10;;;;;;5061983;28;20496;-66
2021/09/21 07:26:52;;;;;;;4.53;3.53;;;18.20;47.20;;;;;;5072768;28;20134;-66
2021/09/21 07:29:18;;;;;;;4.72;3.60;;;18.30;48.00;;;;;;5072385;28;20020;-67
2021/09/21 07:31:44;;;;;;;4.18;3.55;;;18.40;47.50;;;;;;5072625;28;20442;-65
2021/09/21 07:34:10;;;;;;;5.93;3.70;;;18.40;46.80;;;;;;5073402;28;20059;-66
2021/09/21 07:36:36;;;;;;;12.57;4.28;;;18.40;46.60;;;;;;5073427;28;20052;-66
2021/09/21 07:39:03;;;;;;;5.85;3.53;;;18.50;46.30;;;;;;5071737;28;20396;-66
2021/09/21 07:41:29;;;;;;;7.05;4.25;;;18.60;46.20;;;;;;5073183;28;20085;-66
2021/09/21 07:43:54;;;;;;;6.18;3.95;;;18.70;45.40;;;;;;5073095;28;20473;-66
2021/09/21 07:46:20;;;;;;;10.05;4.05;;;18.70;45.20;;;;;;5071535;28;20024;-66
2021/09/21 07:48:46;;;;;;;5.22;3.90;;;18.80;44.90;;;;;;5073004;28;20533;-66
2021/09/21 07:51:12;;;;;;;4.97;3.72;;;18.80;44.10;;;;;;5073004;28;20493;-66
2021/09/21 07:53:38;;;;;;;7.13;3.95;;;18.80;44.40;;;;;;5071904;28;20020;-66
2021/09/21 07:56:04;;;;;;;16.73;4.30;;;18.90;44.00;;;;;;5071794;28;20367;-66
2021/09/21 07:58:29;;;;;;;5.70;3.60;;;18.90;43.70;;;;;;5072889;28;20028;-67
2021/09/21 08:00:55;;;;;;;4.78;3.60;;;18.90;43.50;;;;;;5072842;28;20112;-66
2021/09/21 08:03:24;;;;;;;4.80;3.85;;;19.00;43.80;;;;;;5071418;28;20139;-65
2021/09/21 08:05:50;;;;;;;9.50;4.07;;;19.00;44.10;;;;;;5072878;28;20470;-65
2021/09/21 08:08:16;;;;;;;8.60;4.38;;;19.10;43.50;;;;;;5057131;28;20040;-65
2021/09/21 08:10:45;;;;;;;6.28;3.70;;;19.20;43.90;;;;;;5052854;28;20021;-65
2021/09/21 08:13:11;;;;;;;5.57;3.63;;;19.20;43.80;;;;;;5052546;28;20028;-65
2021/09/21 08:15:37;;;;;;;6.13;4.00;;;19.30;43.40;;;;;;5052589;28;20040;-66
2021/09/21 08:18:06;;;;;;;12.20;4.80;;;19.30;43.40;;;;;;5051849;28;20031;-66
2021/09/21 08:20:33;;;;;;;6.88;3.97;;;19.40;42.80;;;;;;5052489;28;20095;-66
2021/09/21 08:22:59;;;;;;;4.95;3.60;;;19.40;42.60;;;;;;5052368;28;20025;-66
2021/09/21 08:25:25;;;;;;;6.03;3.88;;;19.50;42.70;;;;;;5055689;28;20517;-65
2021/09/21 08:27:51;;;;;;;7.70;3.95;;;19.60;42.90;;;;;;5071923;28;20082;-66
2021/09/21 08:30:19;;;;;;;7.97;3.97;;;19.70;41.60;;;;;;5071953;28;20036;-66
2021/09/21 08:32:46;;;;;;;7.43;4.25;;;19.70;41.50;;;;;;5072254;28;20027;-66
2021/09/21 08:35:12;;;;;;;5.72;3.75;;;19.80;41.00;;;;;;5072544;28;20021;-66
2021/09/21 08:37:38;;;;;;;6.15;3.63;;;19.90;40.70;;;;;;5072201;28;20069;-66
2021/09/21 08:40:05;;;;;;;4.03;3.35;;;19.90;40.80;;;;;;5072148;28;20029;-66
2021/09/21 08:42:31;;;;;;;4.65;3.97;;;20.00;40.90;;;;;;5071965;28;20078;-66
2021/09/21 08:44:56;;;;;;;4.75;3.90;;;20.00;40.60;;;;;;5072039;28;20474;-66
2021/09/21 08:47:23;;;;;;;6.45;4.25;;;20.00;41.10;;;;;;5071877;28;20047;-66
2021/09/21 08:49:49;;;;;;;5.25;3.67;;;20.10;41.00;;;;;;5072134;28;20017;-66
2021/09/21 08:52:14;;;;;;;5.60;3.80;;;20.20;40.50;;;;;;5072041;28;20073;-66
2021/09/21 08:54:40;;;;;;;5.25;3.25;;;20.20;39.70;;;;;;5071911;28;20063;-66
2021/09/21 08:57:07;;;;;;;7.25;3.67;;;20.20;40.10;;;;;;5070605;28;20572;-66
2021/09/21 08:59:37;;;;;;;6.10;3.90;;;20.30;40.20;;;;;;5072105;28;20065;-66
2021/09/21 09:02:04;;;;;;;6.00;3.40;;;20.40;40.10;;;;;;5071792;28;20123;-66
2021/09/21 09:04:30;;;;;;;5.40;3.65;;;20.40;40.30;;;;;;5071850;28;20035;-66
2021/09/21 09:06:57;;;;;;;3.33;2.88;;;20.50;39.80;;;;;;5057659;28;20021;-66
2021/09/21 09:09:25;;;;;;;6.93;4.30;;;20.60;39.70;;;;;;5051747;28;20148;-66
2021/09/21 09:11:56;;;;;;;4.97;4.05;;;20.70;39.80;;;;;;5051809;28;20029;-66
2021/09/21 09:14:34;;;;;;;11.43;4.05;;;20.70;39.50;;;;;;5052069;28;20017;-67
2021/09/21 09:17:02;;;;;;;8.77;4.30;;;20.80;39.30;;;;;;5051842;28;20079;-66
2021/09/21 09:19:37;;;;;;;5.00;3.95;;;21.00;39.00;;;;;;5051725;28;20428;-66
2021/09/21 09:22:12;;;;;;;10.85;4.38;;;21.10;39.50;;;;;;5051830;28;20039;-66
2021/09/21 09:25:00;;;;;;;5.38;4.18;;;21.20;39.70;;;;;;5051854;28;20025;-66
2021/09/21 09:27:49;;;;;;;8.50;4.13;;;21.30;40.10;;;;;;5051779;28;20029;-66
2021/09/21 09:30:19;;;;;;;5.55;4.30;;;21.40;38.60;;;;;;5053918;28;20082;-65
2021/09/21 09:32:48;;;;;;;8.02;4.03;;;21.50;38.20;;;;;;5054611;28;20433;-66
2021/09/21 09:35:23;;;;;;;9.15;4.75;;;21.60;37.70;;;;;;5054398;28;20040;-65
2021/09/21 09:37:49;;;;;;;7.47;4.13;;;21.70;37.10;;;;;;5054520;28;20384;-66
2021/09/21 09:40:15;;;;;;;5.70;3.95;;;21.70;37.40;;;;;;5055776;28;20114;-67
2021/09/21 09:42:44;;;;;;;5.95;4.05;;;21.80;37.50;;;;;;5055501;28;20108;-67
2021/09/21 09:45:11;;;;;;;4.30;3.78;;;21.90;37.90;;;;;;5055485;28;20032;-64
2021/09/21 09:47:48;;;;;;;9.13;3.88;;;22.10;37.00;;;;;;5055352;28;20020;-64
2021/09/21 09:50:16;;;;;;;5.18;3.70;;;22.20;37.20;;;;;;5055596;28;20025;-64
2021/09/21 09:52:42;;;;;;;5.10;3.88;;;22.30;36.80;;;;;;5055477;28;20386;-63
2021/09/21 09:55:08;;;;;;;5.35;4.20;;;22.40;36.50;;;;;;5055373;28;20103;-64
2021/09/21 09:57:39;;;;;;;8.30;4.20;;;22.60;36.40;;;;;;5055351;28;20021;-63
2021/09/21 10:00:05;;;;;;;6.50;4.65;;;22.70;36.30;;;;;;5055155;28;20104;-63
2021/09/21 10:02:31;;;;;;;9.18;4.15;;;22.80;35.70;;;;;;5054856;28;20057;-63
2021/09/21 10:04:57;;;;;;;7.43;3.55;;;23.00;35.80;;;;;;5055157;28;20029;-63
2021/09/21 10:07:24;;;;;;;7.13;3.70;;;23.00;35.50;;;;;;5055079;28;20113;-63
2021/09/21 10:09:52;;;;;;;4.63;3.78;;;23.10;35.00;;;;;;5055147;28;20021;-63
2021/09/21 10:12:18;;;;;;;7.97;4.43;;;23.20;34.80;;;;;;5055104;28;20075;-62
2021/09/21 10:14:44;;;;;;;11.57;4.22;;;23.30;34.00;;;;;;5054942;28;20029;-63
2021/09/21 10:17:10;;;;;;;5.25;3.90;;;23.40;34.00;;;;;;5054967;28;20017;-63
2021/09/21 10:19:40;;;;;;;8.70;4.53;;;23.50;33.10;;;;;;5054793;28;20025;-63
2021/09/21 10:22:09;;;;;;;6.93;4.32;;;23.60;32.00;;;;;;5054865;28;20036;-64
2021/09/21 10:24:48;;;;;;;8.15;4.90;;;23.60;32.30;;;;;;5054731;28;20044;-63
2021/09/21 10:27:22;;;;;;;7.35;4.97;;;23.60;31.60;;;;;;5054804;28;20025;-63
2021/09/21 10:30:07;;;;;;;7.57;4.75;;;23.70;32.30;;;;;;5060860;28;20103;-64
2021/09/21 10:32:44;;;;;;;8.60;4.55;;;23.70;31.80;;;;;;5074648;28;20016;-64
2021/09/21 10:35:15;;;;;;;4.65;4.07;;;23.80;32.30;;;;;;5074486;28;20029;-63
2021/09/21 10:37:41;;;;;;;8.60;4.72;;;23.90;31.90;;;;;;5074469;28;20024;-63
2021/09/21 10:40:09;;;;;;;6.50;4.13;;;24.00;31.80;;;;;;5074535;28;20020;-64
2021/09/21 10:42:35;;;;;;;12.35;4.85;;;24.10;31.60;;;;;;5073780;28;20042;-62
2021/09/21 10:45:04;;;;;;;5.78;4.68;;;24.20;31.00;;;;;;5074428;28;20035;-63
2021/09/21 10:47:37;;;;;;;6.85;5.10;;;24.20;30.70;;;;;;5074422;28;20474;-63
2021/09/21 10:50:16;;;;;;;13.50;5.63;;;24.30;30.50;;;;;;5074449;28;20020;-63
2021/09/21 10:52:42;;;;;;;7.53;5.13;;;24.40;30.30;;;;;;5073019;28;20055;-64
2021/09/21 10:55:13;;;;;;;6.32;5.22;;;24.40;29.70;;;;;;5074357;28;20024;-63
2021/09/21 10:57:44;;;;;;;7.35;5.22;;;24.50;29.50;;;;;;5074305;28;20051;-64
2021/09/21 11:00:20;;;;;;;7.53;4.97;;;24.50;29.60;;;;;;5074211;28;20025;-63
2021/09/21 11:02:49;;;;;;;7.43;4.95;;;24.60;30.10;;;;;;5071140;28;20107;-63
2021/09/21 11:05:17;;;;;;;8.25;5.53;;;24.70;30.00;;;;;;5054004;28;20024;-64
2021/09/21 11:07:51;;;;;;;6.80;5.15;;;24.70;29.90;;;;;;5053716;28;20024;-63
2021/09/21 11:10:18;;;;;;;7.38;5.00;;;24.80;29.70;;;;;;5054062;28;20111;-64
2021/09/21 11:12:48;;;;;;;9.90;5.03;;;24.90;29.60;;;;;;5054188;28;20109;-63
2021/09/21 11:15:16;;;;;;;8.52;5.25;;;25.00;29.60;;;;;;5054102;28;20025;-64
2021/09/21 11:17:41;;;;;;;8.13;4.70;;;25.00;29.50;;;;;;5054085;28;20026;-64
2021/09/21 11:20:08;;;;;;;8.30;4.00;;;25.10;29.00;;;;;;5054317;28;20035;-63
2021/09/21 11:22:36;;;;;;;4.95;3.33;;;25.20;27.90;;;;;;5054003;28;20382;-63
2021/09/21 11:25:09;;;;;;;4.43;3.50;;;25.20;27.20;;;;;;5053892;28;20025;-62
2021/09/21 11:27:37;;;;;;;4.63;3.38;;;25.30;27.70;;;;;;5053697;28;20470;-63
2021/09/21 11:30:13;;;;;;;9.55;3.60;;;25.30;27.70;;;;;;5053974;28;20056;-63
2021/09/21 11:32:43;;;;;;;7.88;3.58;;;25.30;27.40;;;;;;5065188;28;20095;-64
2021/09/21 11:35:12;;;;;;;4.30;3.33;;;25.40;27.40;;;;;;5073800;28;20404;-64
2021/09/21 11:37:42;;;;;;;4.03;3.08;;;25.40;26.80;;;;;;5073396;28;20500;-65
2021/09/21 11:40:09;;;;;;;8.88;3.63;;;25.40;27.10;;;;;;5073443;28;20063;-63
2021/09/21 11:42:36;;;;;;;5.75;3.55;;;25.50;26.40;;;;;;5073519;28;20540;-63
2021/09/21 11:45:09;;;;;;;6.03;3.30;;;25.50;26.90;;;;;;5073414;28;20031;-64
2021/09/21 11:47:43;;;;;;;4.25;3.47;;;25.50;27.00;;;;;;5072003;28;20485;-63
2021/09/21 11:50:12;;;;;;;4.20;3.20;;;25.60;26.70;;;;;;5073135;28;20036;-63
2021/09/21 11:52:40;;;;;;;8.65;4.43;;;25.60;26.90;;;;;;5072964;28;20373;-64
2021/09/21 11:55:11;;;;;;;13.32;5.03;;;25.60;26.80;;;;;;5072742;28;20474;-64
2021/09/21 11:57:37;;;;;;;5.20;3.95;;;25.60;26.80;;;;;;5073077;28;20039;-64
2021/09/21 12:00:05;;;;;;;4.75;3.47;;;25.70;26.70;;;;;;5073019;28;20029;-65
2021/09/21 12:02:34;;;;;;;6.63;3.50;;;25.70;26.70;;;;;;5060219;28;20522;-65
2021/09/21 12:05:00;;;;;;;8.23;4.45;;;25.70;26.80;;;;;;5052901;28;20095;-65
2021/09/21 12:07:27;;;;;;;5.47;4.20;;;25.70;26.80;;;;;;5052696;28;20205;-64
2021/09/21 12:09:54;;;;;;;4.05;3.65;;;25.60;26.40;;;;;;5052805;28;20030;-63
2021/09/21 12:12:23;;;;;;;5.95;3.33;;;25.50;26.20;;;;;;5052791;28;20475;-63
2021/09/21 12:15:00;;;;;;;5.10;3.40;;;25.30;25.80;;;;;;5052672;28;20029;-64
2021/09/21 12:17:26;;;;;;;8.30;3.72;;;25.20;26.70;;;;;;5052704;28;20047;-64
2021/09/21 12:19:59;;;;;;;6.03;4.15;;;25.10;26.30;;;;;;5052538;28;20032;-64
2021/09/21 12:22:27;;;;;;;5.10;3.42;;;25.00;26.40;;;;;;5052806;28;20024;-65
2021/09/21 12:24:53;;;;;;;5.50;3.75;;;24.90;26.80;;;;;;5052658;28;20107;-64
2021/09/21 12:27:23;;;;;;;3.97;3.35;;;24.80;26.90;;;;;;5051088;28;20098;-65
2021/09/21 12:29:50;;;;;;;4.32;3.45;;;24.80;26.90;;;;;;5052457;28;20025;-63
2021/09/21 12:32:16;;;;;;;3.65;3.13;;;24.70;27.00;;;;;;5052308;28;20371;-63
2021/09/21 12:34:43;;;;;;;5.20;3.38;;;24.70;27.30;;;;;;5055805;28;20023;-63
2021/09/21 12:37:09;;;;;;;4.03;3.20;;;24.70;27.40;;;;;;5072402;28;20023;-63
2021/09/21 12:39:35;;;;;;;6.55;3.50;;;24.80;27.30;;;;;;5072411;28;20363;-64
2021/09/21 12:42:03;;;;;;;4.90;3.47;;;24.80;27.20;;;;;;5072369;28;20031;-64
2021/09/21 12:44:29;;;;;;;4.85;3.28;;;24.80;27.10;;;;;;5072477;28;20086;-64
2021/09/21 12:46:57;;;;;;;5.78;3.13;;;24.80;27.10;;;;;;5072214;28;20074;-63
2021/09/21 12:49:25;;;;;;;6.28;3.30;;;24.80;27.00;;;;;;5070824;28;20025;-64
2021/09/21 12:51:56;;;;;;;4.10;3.15;;;24.80;26.80;;;;;;5072232;28;20434;-62
2021/09/21 12:54:24;;;;;;;4.15;2.70;;;24.80;26.60;;;;;;5072154;28;20352;-63
2021/09/21 12:56:57;;;;;;;5.78;3.28;;;24.70;27.00;;;;;;5072093;28;20051;-63